sensor_id;sensor_type;location;lat;lon;timestamp;temperature;humidity
16327;DHT22;34812;49.846;9.610;2022-12-18T00:00:04;-10.40;99.90
16327;DHT22;34812;49.846;9.610;2022-12-18T00:01:14;-10.40;99.90
16327;DHT22;34812;49.846;9.610;2022-12-18T00:02:15;-10.40;99.90
16327;DHT22;34812;49.846;9.610;2022-12-18T00:03:17;-10.40;99.90
16327;DHT22;34812;49.846;9.610;2022-12-18T00:04:20;-10.40;99.90
16327;DHT22;34812;49.846;9.610;2022-12-18T00:05:22;-10.50;99.90
16327;DHT22;34812;49.846;9.610;2022-12-18T00:06:24;-10.50;99.90
16327;DHT22;34812;49.846;9.610;2022-12-18T00:07:26;-10.40;99.90
16327;DHT22;34812;49.846;9.610;2022-12-18T00:08:27;-10.50;99.90
16327;DHT22;34812;49.846;9.610;2022-12-18T00:09:29;-10.50;99.90
16327;DHT22;34812;49.846;9.610;2022-12-18T00:10:30;-10.50;99.90
16327;DHT22;34812;49.846;9.610;2022-12-18T00:11:33;-10.50;99.90
16327;DHT22;34812;49.846;9.610;2022-12-18T00:12:34;-10.50;99.90
16327;DHT22;34812;49.846;9.610;2022-12-18T00:13:35;-10.50;99.90
16327;DHT22;34812;49.846;9.610;2022-12-18T00:14:36;-10.50;99.90
16327;DHT22;34812;49.846;9.610;2022-12-18T00:15:39;-10.50;99.90
16327;DHT22;34812;49.846;9.610;2022-12-18T00:16:42;-10.50;99.90
16327;DHT22;34812;49.846;9.610;2022-12-18T00:17:44;-10.50;99.90
16327;DHT22;34812;49.846;9.610;2022-12-18T00:18:45;-10.50;99.90
16327;DHT22;34812;49.846;9.610;2022-12-18T00:19:47;-10.50;99.90
16327;DHT22;34812;49.846;9.610;2022-12-18T00:20:48;-10.50;99.90
16327;DHT22;34812;49.846;9.610;2022-12-18T00:21:50;-10.50;99.90
16327;DHT22;34812;49.846;9.610;2022-12-18T00:22:51;-10.50;99.90
16327;DHT22;34812;49.846;9.610;2022-12-18T00:23:52;-10.50;99.90
16327;DHT22;34812;49.846;9.610;2022-12-18T00:24:53;-10.50;99.90
16327;DHT22;34812;49.846;9.610;2022-12-18T00:25:58;-10.50;99.90
16327;DHT22;34812;49.846;9.610;2022-12-18T00:27:00;-10.50;99.90
16327;DHT22;34812;49.846;9.610;2022-12-18T00:28:03;-10.60;99.90
16327;DHT22;34812;49.846;9.610;2022-12-18T00:29:06;-10.50;99.90
16327;DHT22;34812;49.846;9.610;2022-12-18T00:30:09;-10.60;99.90
16327;DHT22;34812;49.846;9.610;2022-12-18T00:31:11;-10.50;99.90
16327;DHT22;34812;49.846;9.610;2022-12-18T00:32:13;-10.50;99.90
16327;DHT22;34812;49.846;9.610;2022-12-18T00:33:14;-10.50;99.90
16327;DHT22;34812;49.846;9.610;2022-12-18T00:34:16;-10.50;99.90
16327;DHT22;34812;49.846;9.610;2022-12-18T00:35:16;-10.50;99.90
16327;DHT22;34812;49.846;9.610;2022-12-18T00:36:20;-10.50;99.90
16327;DHT22;34812;49.846;9.610;2022-12-18T00:37:21;-10.50;99.90
16327;DHT22;34812;49.846;9.610;2022-12-18T00:38:23;-10.50;99.90
16327;DHT22;34812;49.846;9.610;2022-12-18T00:39:23;-10.50;99.90
16327;DHT22;34812;49.846;9.610;2022-12-18T00:40:25;-10.50;99.90
16327;DHT22;34812;49.846;9.610;2022-12-18T00:41:27;-10.50;99.90
16327;DHT22;34812;49.846;9.610;2022-12-18T00:42:48;-10.60;99.90
16327;DHT22;34812;49.846;9.610;2022-12-18T00:43:58;-10.50;99.90
16327;DHT22;34812;49.846;9.610;2022-12-18T00:44:59;-10.50;99.90
16327;DHT22;34812;49.846;9.610;2022-12-18T00:46:00;-10.50;99.90
16327;DHT22;34812;49.846;9.610;2022-12-18T00:47:01;-10.50;99.90
16327;DHT22;34812;49.846;9.610;2022-12-18T00:48:02;-10.50;99.90
16327;DHT22;34812;49.846;9.610;2022-12-18T00:49:05;-10.50;99.90
16327;DHT22;34812;49.846;9.610;2022-12-18T00:50:06;-10.50;99.90
16327;DHT22;34812;49.846;9.610;2022-12-18T00:51:08;-10.50;99.90
16327;DHT22;34812;49.846;9.610;2022-12-18T00:52:09;-10.50;99.90
16327;DHT22;34812;49.846;9.610;2022-12-18T00:53:11;-10.50;99.90
16327;DHT22;34812;49.846;9.610;2022-12-18T00:54:12;-10.50;99.90
16327;DHT22;34812;49.846;9.610;2022-12-18T00:55:14;-10.50;99.90
16327;DHT22;34812;49.846;9.610;2022-12-18T00:56:14;-10.50;99.90
16327;DHT22;34812;49.846;9.610;2022-12-18T00:57:16;-10.50;99.90
16327;DHT22;34812;49.846;9.610;2022-12-18T00:58:18;-10.50;99.90
16327;DHT22;34812;49.846;9.610;2022-12-18T00:59:20;-10.50;99.90
16327;DHT22;34812;49.846;9.610;2022-12-18T01:00:21;-10.50;99.90
16327;DHT22;34812;49.846;9.610;2022-12-18T01:01:23;-10.50;99.90
16327;DHT22;34812;49.846;9.610;2022-12-18T01:02:24;-10.50;99.90
16327;DHT22;34812;49.846;9.610;2022-12-18T01:03:26;-10.50;99.90
16327;DHT22;34812;49.846;9.610;2022-12-18T01:04:27;-10.50;99.90
16327;DHT22;34812;49.846;9.610;2022-12-18T01:05:28;-10.50;99.90
16327;DHT22;34812;49.846;9.610;2022-12-18T01:06:30;-10.50;99.90
16327;DHT22;34812;49.846;9.610;2022-12-18T01:07:31;-10.50;99.90
16327;DHT22;34812;49.846;9.610;2022-12-18T01:08:32;-10.50;99.90
16327;DHT22;34812;49.846;9.610;2022-12-18T01:09:34;-10.50;99.90
16327;DHT22;34812;49.846;9.610;2022-12-18T01:10:35;-10.50;99.90
16327;DHT22;34812;49.846;9.610;2022-12-18T01:11:36;-10.50;99.90
16327;DHT22;34812;49.846;9.610;2022-12-18T01:12:37;-10.50;99.90
16327;DHT22;34812;49.846;9.610;2022-12-18T01:13:40;-10.50;99.90
16327;DHT22;34812;49.846;9.610;2022-12-18T01:14:41;-10.50;99.90
16327;DHT22;34812;49.846;9.610;2022-12-18T01:15:48;-10.50;99.90
16327;DHT22;34812;49.846;9.610;2022-12-18T01:16:49;-10.60;99.90
16327;DHT22;34812;49.846;9.610;2022-12-18T01:17:52;-10.60;99.90
16327;DHT22;34812;49.846;9.610;2022-12-18T01:18:54;-10.60;99.90
16327;DHT22;34812;49.846;9.610;2022-12-18T01:19:55;-10.60;99.90
16327;DHT22;34812;49.846;9.610;2022-12-18T01:20:57;-10.50;99.90
16327;DHT22;34812;49.846;9.610;2022-12-18T01:21:58;-10.50;99.90
16327;DHT22;34812;49.846;9.610;2022-12-18T01:23:00;-10.50;99.90
16327;DHT22;34812;49.846;9.610;2022-12-18T01:24:00;-10.60;99.90
16327;DHT22;34812;49.846;9.610;2022-12-18T01:25:03;-10.50;99.90
16327;DHT22;34812;49.846;9.610;2022-12-18T01:26:05;-10.60;99.90
16327;DHT22;34812;49.846;9.610;2022-12-18T01:27:07;-10.60;99.90
16327;DHT22;34812;49.846;9.610;2022-12-18T01:28:08;-10.60;99.90
16327;DHT22;34812;49.846;9.610;2022-12-18T01:29:11;-10.60;99.90
16327;DHT22;34812;49.846;9.610;2022-12-18T01:30:12;-10.60;99.90
16327;DHT22;34812;49.846;9.610;2022-12-18T01:31:17;-10.60;99.90
16327;DHT22;34812;49.846;9.610;2022-12-18T01:32:19;-10.60;99.90
16327;DHT22;34812;49.846;9.610;2022-12-18T01:33:21;-10.60;99.90
16327;DHT22;34812;49.846;9.610;2022-12-18T01:34:22;-10.60;99.90
16327;DHT22;34812;49.846;9.610;2022-12-18T01:35:23;-10.60;99.90
16327;DHT22;34812;49.846;9.610;2022-12-18T01:36:26;-10.60;99.90
16327;DHT22;34812;49.846;9.610;2022-12-18T01:37:28;-10.60;99.90
16327;DHT22;34812;49.846;9.610;2022-12-18T01:38:29;-10.60;99.90
16327;DHT22;34812;49.846;9.610;2022-12-18T01:39:31;-10.60;99.90
16327;DHT22;34812;49.846;9.610;2022-12-18T01:40:32;-10.60;99.90
16327;DHT22;34812;49.846;9.610;2022-12-18T01:41:34;-10.60;99.90
16327;DHT22;34812;49.846;9.610;2022-12-18T01:42:51;-10.50;99.90
16327;DHT22;34812;49.846;9.610;2022-12-18T01:43:54;-10.60;99.90
16327;DHT22;34812;49.846;9.610;2022-12-18T01:45:06;-10.60;99.90
16327;DHT22;34812;49.846;9.610;2022-12-18T01:46:08;-10.60;99.90
16327;DHT22;34812;49.846;9.610;2022-12-18T01:47:09;-10.60;99.90
16327;DHT22;34812;49.846;9.610;2022-12-18T01:48:14;-10.60;99.90
16327;DHT22;34812;49.846;9.610;2022-12-18T01:49:15;-10.60;99.90
16327;DHT22;34812;49.846;9.610;2022-12-18T01:50:19;-10.60;99.90
16327;DHT22;34812;49.846;9.610;2022-12-18T01:51:21;-10.70;99.90
16327;DHT22;34812;49.846;9.610;2022-12-18T01:52:22;-10.70;99.90
16327;DHT22;34812;49.846;9.610;2022-12-18T01:53:26;-10.70;99.90
16327;DHT22;34812;49.846;9.610;2022-12-18T01:54:27;-10.70;99.90
16327;DHT22;34812;49.846;9.610;2022-12-18T01:55:32;-10.70;99.90
16327;DHT22;34812;49.846;9.610;2022-12-18T01:56:35;-10.70;99.90
16327;DHT22;34812;49.846;9.610;2022-12-18T01:57:39;-10.70;99.90
16327;DHT22;34812;49.846;9.610;2022-12-18T01:58:46;-10.70;99.90
16327;DHT22;34812;49.846;9.610;2022-12-18T01:59:52;-10.70;99.90
16327;DHT22;34812;49.846;9.610;2022-12-18T02:00:56;-10.70;99.90
16327;DHT22;34812;49.846;9.610;2022-12-18T02:01:57;-10.70;99.90
16327;DHT22;34812;49.846;9.610;2022-12-18T02:02:58;-10.70;99.90
16327;DHT22;34812;49.846;9.610;2022-12-18T02:04:19;-10.70;99.90
16327;DHT22;34812;49.846;9.610;2022-12-18T02:05:29;-10.70;99.90
16327;DHT22;34812;49.846;9.610;2022-12-18T02:06:40;-10.70;99.90
16327;DHT22;34812;49.846;9.610;2022-12-18T02:07:46;-10.70;99.90
16327;DHT22;34812;49.846;9.610;2022-12-18T02:08:59;-10.70;99.90
16327;DHT22;34812;49.846;9.610;2022-12-18T02:10:07;-10.70;99.90
16327;DHT22;34812;49.846;9.610;2022-12-18T02:11:17;-10.70;99.90
16327;DHT22;34812;49.846;9.610;2022-12-18T02:12:22;-10.70;99.90
16327;DHT22;34812;49.846;9.610;2022-12-18T02:13:29;-10.70;99.90
16327;DHT22;34812;49.846;9.610;2022-12-18T02:14:37;-10.70;99.90
16327;DHT22;34812;49.846;9.610;2022-12-18T02:15:44;-10.80;99.90
16327;DHT22;34812;49.846;9.610;2022-12-18T02:16:52;-10.80;99.90
16327;DHT22;34812;49.846;9.610;2022-12-18T02:17:58;-10.80;99.90
16327;DHT22;34812;49.846;9.610;2022-12-18T02:19:05;-10.80;99.90
16327;DHT22;34812;49.846;9.610;2022-12-18T02:20:13;-10.90;99.90
16327;DHT22;34812;49.846;9.610;2022-12-18T02:21:22;-10.80;99.90
16327;DHT22;34812;49.846;9.610;2022-12-18T02:22:37;-10.80;99.90
16327;DHT22;34812;49.846;9.610;2022-12-18T02:23:48;-10.80;99.90
16327;DHT22;34812;49.846;9.610;2022-12-18T02:25:01;-10.90;99.90
16327;DHT22;34812;49.846;9.610;2022-12-18T02:26:14;-10.90;99.90
16327;DHT22;34812;49.846;9.610;2022-12-18T02:27:19;-10.90;99.90
16327;DHT22;34812;49.846;9.610;2022-12-18T02:28:21;-10.90;99.90
16327;DHT22;34812;49.846;9.610;2022-12-18T02:29:25;-10.90;99.90
16327;DHT22;34812;49.846;9.610;2022-12-18T02:30:30;-10.90;99.90
16327;DHT22;34812;49.846;9.610;2022-12-18T02:31:38;-10.90;99.90
16327;DHT22;34812;49.846;9.610;2022-12-18T02:32:43;-11.00;99.90
16327;DHT22;34812;49.846;9.610;2022-12-18T02:33:47;-11.00;99.90
16327;DHT22;34812;49.846;9.610;2022-12-18T02:34:50;-11.00;99.90
16327;DHT22;34812;49.846;9.610;2022-12-18T02:35:54;-11.10;99.90
16327;DHT22;34812;49.846;9.610;2022-12-18T02:36:58;-11.10;99.90
16327;DHT22;34812;49.846;9.610;2022-12-18T02:38:03;-11.10;99.90
16327;DHT22;34812;49.846;9.610;2022-12-18T02:39:05;-11.10;99.90
16327;DHT22;34812;49.846;9.610;2022-12-18T02:40:09;-11.10;99.90
16327;DHT22;34812;49.846;9.610;2022-12-18T02:41:13;-11.10;99.90
16327;DHT22;34812;49.846;9.610;2022-12-18T02:42:16;-11.10;99.90
16327;DHT22;34812;49.846;9.610;2022-12-18T02:43:18;-11.10;99.90
16327;DHT22;34812;49.846;9.610;2022-12-18T02:44:19;-11.00;99.90
16327;DHT22;34812;49.846;9.610;2022-12-18T02:45:20;-11.00;99.90
16327;DHT22;34812;49.846;9.610;2022-12-18T02:46:28;-11.00;99.90
16327;DHT22;34812;49.846;9.610;2022-12-18T02:47:34;-11.00;99.90
16327;DHT22;34812;49.846;9.610;2022-12-18T02:48:38;-11.00;99.90
16327;DHT22;34812;49.846;9.610;2022-12-18T02:49:47;-11.00;99.90
16327;DHT22;34812;49.846;9.610;2022-12-18T02:50:58;-11.10;99.90
16327;DHT22;34812;49.846;9.610;2022-12-18T02:52:07;-11.10;99.90
16327;DHT22;34812;49.846;9.610;2022-12-18T02:53:18;-11.10;99.90
16327;DHT22;34812;49.846;9.610;2022-12-18T02:54:32;-11.10;99.90
16327;DHT22;34812;49.846;9.610;2022-12-18T02:55:47;-11.10;99.90
16327;DHT22;34812;49.846;9.610;2022-12-18T02:56:57;-11.10;99.90
16327;DHT22;34812;49.846;9.610;2022-12-18T02:58:03;-11.10;99.90
16327;DHT22;34812;49.846;9.610;2022-12-18T02:59:09;-11.10;99.90
16327;DHT22;34812;49.846;9.610;2022-12-18T03:00:12;-11.10;99.90
16327;DHT22;34812;49.846;9.610;2022-12-18T03:01:19;-11.20;99.90
16327;DHT22;34812;49.846;9.610;2022-12-18T03:02:26;-11.20;99.90
16327;DHT22;34812;49.846;9.610;2022-12-18T03:03:33;-11.20;99.90
16327;DHT22;34812;49.846;9.610;2022-12-18T03:04:40;-11.20;99.90
16327;DHT22;34812;49.846;9.610;2022-12-18T03:05:45;-11.20;99.90
16327;DHT22;34812;49.846;9.610;2022-12-18T03:06:49;-11.20;99.90
16327;DHT22;34812;49.846;9.610;2022-12-18T03:07:57;-11.20;99.90
16327;DHT22;34812;49.846;9.610;2022-12-18T03:09:02;-11.30;99.90
16327;DHT22;34812;49.846;9.610;2022-12-18T03:10:09;-11.20;99.90
16327;DHT22;34812;49.846;9.610;2022-12-18T03:11:13;-11.20;99.90
16327;DHT22;34812;49.846;9.610;2022-12-18T03:12:20;-11.20;99.90
16327;DHT22;34812;49.846;9.610;2022-12-18T03:13:28;-11.20;99.90
16327;DHT22;34812;49.846;9.610;2022-12-18T03:14:32;-11.20;99.90
16327;DHT22;34812;49.846;9.610;2022-12-18T03:15:36;-11.20;99.90
16327;DHT22;34812;49.846;9.610;2022-12-18T03:16:40;-11.30;99.90
16327;DHT22;34812;49.846;9.610;2022-12-18T03:17:44;-11.20;99.90
16327;DHT22;34812;49.846;9.610;2022-12-18T03:18:50;-11.20;99.90
16327;DHT22;34812;49.846;9.610;2022-12-18T03:19:53;-11.20;99.90
16327;DHT22;34812;49.846;9.610;2022-12-18T03:20:59;-11.20;99.90
16327;DHT22;34812;49.846;9.610;2022-12-18T03:22:04;-11.20;99.90
16327;DHT22;34812;49.846;9.610;2022-12-18T03:23:09;-11.20;99.90
16327;DHT22;34812;49.846;9.610;2022-12-18T03:24:12;-11.30;99.90
16327;DHT22;34812;49.846;9.610;2022-12-18T03:25:16;-11.30;99.90
16327;DHT22;34812;49.846;9.610;2022-12-18T03:26:22;-11.20;99.90
16327;DHT22;34812;49.846;9.610;2022-12-18T03:27:27;-11.20;99.90
16327;DHT22;34812;49.846;9.610;2022-12-18T03:28:32;-11.30;99.90
16327;DHT22;34812;49.846;9.610;2022-12-18T03:29:39;-11.20;99.90
16327;DHT22;34812;49.846;9.610;2022-12-18T03:30:44;-11.20;99.90
16327;DHT22;34812;49.846;9.610;2022-12-18T03:31:51;-11.30;99.90
16327;DHT22;34812;49.846;9.610;2022-12-18T03:32:59;-11.30;99.90
16327;DHT22;34812;49.846;9.610;2022-12-18T03:34:05;-11.30;99.90
16327;DHT22;34812;49.846;9.610;2022-12-18T03:35:10;-11.30;99.90
16327;DHT22;34812;49.846;9.610;2022-12-18T03:36:14;-11.30;99.90
16327;DHT22;34812;49.846;9.610;2022-12-18T03:37:15;-11.30;99.90
16327;DHT22;34812;49.846;9.610;2022-12-18T03:38:17;-11.30;99.90
16327;DHT22;34812;49.846;9.610;2022-12-18T03:39:18;-11.30;99.90
16327;DHT22;34812;49.846;9.610;2022-12-18T03:40:24;-11.30;99.90
16327;DHT22;34812;49.846;9.610;2022-12-18T03:41:32;-11.30;99.90
16327;DHT22;34812;49.846;9.610;2022-12-18T03:42:42;-11.30;99.90
16327;DHT22;34812;49.846;9.610;2022-12-18T03:43:49;-11.30;99.90
16327;DHT22;34812;49.846;9.610;2022-12-18T03:44:57;-11.40;99.90
16327;DHT22;34812;49.846;9.610;2022-12-18T03:46:08;-11.40;99.90
16327;DHT22;34812;49.846;9.610;2022-12-18T03:47:15;-11.40;99.90
16327;DHT22;34812;49.846;9.610;2022-12-18T03:48:20;-11.40;99.90
16327;DHT22;34812;49.846;9.610;2022-12-18T03:49:32;-11.40;99.90
16327;DHT22;34812;49.846;9.610;2022-12-18T03:50:41;-11.40;99.90
16327;DHT22;34812;49.846;9.610;2022-12-18T03:51:51;-11.40;99.90
16327;DHT22;34812;49.846;9.610;2022-12-18T03:52:57;-11.40;99.90
16327;DHT22;34812;49.846;9.610;2022-12-18T03:54:03;-11.40;99.90
16327;DHT22;34812;49.846;9.610;2022-12-18T03:55:07;-11.40;99.90
16327;DHT22;34812;49.846;9.610;2022-12-18T03:56:10;-11.40;99.90
16327;DHT22;34812;49.846;9.610;2022-12-18T03:57:14;-11.40;99.90
16327;DHT22;34812;49.846;9.610;2022-12-18T03:58:22;-11.40;99.90
16327;DHT22;34812;49.846;9.610;2022-12-18T03:59:24;-11.40;99.90
16327;DHT22;34812;49.846;9.610;2022-12-18T04:00:28;-11.40;99.90
16327;DHT22;34812;49.846;9.610;2022-12-18T04:01:32;-11.40;99.90
16327;DHT22;34812;49.846;9.610;2022-12-18T04:02:35;-11.40;99.90
16327;DHT22;34812;49.846;9.610;2022-12-18T04:03:37;-11.30;99.90
16327;DHT22;34812;49.846;9.610;2022-12-18T04:04:41;-11.40;99.90
16327;DHT22;34812;49.846;9.610;2022-12-18T04:05:43;-11.40;99.90
16327;DHT22;34812;49.846;9.610;2022-12-18T04:06:46;-11.40;99.90
16327;DHT22;34812;49.846;9.610;2022-12-18T04:07:49;-11.40;99.90
16327;DHT22;34812;49.846;9.610;2022-12-18T04:08:53;-11.40;99.90
16327;DHT22;34812;49.846;9.610;2022-12-18T04:09:56;-11.40;99.90
16327;DHT22;34812;49.846;9.610;2022-12-18T04:10:59;-11.40;99.90
16327;DHT22;34812;49.846;9.610;2022-12-18T04:12:00;-11.40;99.90
16327;DHT22;34812;49.846;9.610;2022-12-18T04:13:02;-11.40;99.90
16327;DHT22;34812;49.846;9.610;2022-12-18T04:14:04;-11.30;99.90
16327;DHT22;34812;49.846;9.610;2022-12-18T04:15:07;-11.40;99.90
16327;DHT22;34812;49.846;9.610;2022-12-18T04:16:08;-11.40;99.90
16327;DHT22;34812;49.846;9.610;2022-12-18T04:17:10;-11.40;99.90
16327;DHT22;34812;49.846;9.610;2022-12-18T04:18:11;-11.40;99.90
16327;DHT22;34812;49.846;9.610;2022-12-18T04:19:13;-11.40;99.90
16327;DHT22;34812;49.846;9.610;2022-12-18T04:20:15;-11.40;99.90
16327;DHT22;34812;49.846;9.610;2022-12-18T04:21:16;-11.40;99.90
16327;DHT22;34812;49.846;9.610;2022-12-18T04:22:17;-11.40;99.90
16327;DHT22;34812;49.846;9.610;2022-12-18T04:23:18;-11.40;99.90
16327;DHT22;34812;49.846;9.610;2022-12-18T04:24:20;-11.40;99.90
16327;DHT22;34812;49.846;9.610;2022-12-18T04:25:21;-11.40;99.90
16327;DHT22;34812;49.846;9.610;2022-12-18T04:26:23;-11.40;99.90
16327;DHT22;34812;49.846;9.610;2022-12-18T04:27:23;-11.40;99.90
16327;DHT22;34812;49.846;9.610;2022-12-18T04:28:25;-11.40;99.90
16327;DHT22;34812;49.846;9.610;2022-12-18T04:29:27;-11.40;99.90
16327;DHT22;34812;49.846;9.610;2022-12-18T04:30:29;-11.50;99.90
16327;DHT22;34812;49.846;9.610;2022-12-18T04:31:30;-11.50;99.90
16327;DHT22;34812;49.846;9.610;2022-12-18T04:32:33;-11.50;99.90
16327;DHT22;34812;49.846;9.610;2022-12-18T04:33:34;-11.60;99.90
16327;DHT22;34812;49.846;9.610;2022-12-18T04:34:35;-11.60;99.90
16327;DHT22;34812;49.846;9.610;2022-12-18T04:35:36;-11.60;99.90
16327;DHT22;34812;49.846;9.610;2022-12-18T04:36:38;-11.60;99.90
16327;DHT22;34812;49.846;9.610;2022-12-18T04:37:39;-11.60;99.90
16327;DHT22;34812;49.846;9.610;2022-12-18T04:38:40;-11.60;99.90
16327;DHT22;34812;49.846;9.610;2022-12-18T04:39:42;-11.60;99.90
16327;DHT22;34812;49.846;9.610;2022-12-18T04:40:43;-11.60;99.90
16327;DHT22;34812;49.846;9.610;2022-12-18T04:41:45;-11.60;99.90
16327;DHT22;34812;49.846;9.610;2022-12-18T04:42:46;-11.60;99.90
16327;DHT22;34812;49.846;9.610;2022-12-18T04:43:47;-11.60;99.90
16327;DHT22;34812;49.846;9.610;2022-12-18T04:44:49;-11.50;99.90
16327;DHT22;34812;49.846;9.610;2022-12-18T04:45:51;-11.60;99.90
16327;DHT22;34812;49.846;9.610;2022-12-18T04:46:52;-11.60;99.90
16327;DHT22;34812;49.846;9.610;2022-12-18T04:47:53;-11.60;99.90
16327;DHT22;34812;49.846;9.610;2022-12-18T04:48:54;-11.60;99.90
16327;DHT22;34812;49.846;9.610;2022-12-18T04:49:56;-11.60;99.90
16327;DHT22;34812;49.846;9.610;2022-12-18T04:50:57;-11.60;99.90
16327;DHT22;34812;49.846;9.610;2022-12-18T04:51:59;-11.60;99.90
16327;DHT22;34812;49.846;9.610;2022-12-18T04:52:59;-11.60;99.90
16327;DHT22;34812;49.846;9.610;2022-12-18T04:54:01;-11.60;99.90
16327;DHT22;34812;49.846;9.610;2022-12-18T04:55:02;-11.60;99.90
16327;DHT22;34812;49.846;9.610;2022-12-18T04:56:06;-11.60;99.90
16327;DHT22;34812;49.846;9.610;2022-12-18T04:57:07;-11.60;99.90
16327;DHT22;34812;49.846;9.610;2022-12-18T04:58:08;-11.60;99.90
16327;DHT22;34812;49.846;9.610;2022-12-18T04:59:09;-11.60;99.90
16327;DHT22;34812;49.846;9.610;2022-12-18T05:00:13;-11.60;99.90
16327;DHT22;34812;49.846;9.610;2022-12-18T05:01:16;-11.60;99.90
16327;DHT22;34812;49.846;9.610;2022-12-18T05:02:18;-11.60;99.90
16327;DHT22;34812;49.846;9.610;2022-12-18T05:03:18;-11.60;99.90
16327;DHT22;34812;49.846;9.610;2022-12-18T05:04:20;-11.60;99.90
16327;DHT22;34812;49.846;9.610;2022-12-18T05:05:21;-11.60;99.90
16327;DHT22;34812;49.846;9.610;2022-12-18T05:06:23;-11.60;99.90
16327;DHT22;34812;49.846;9.610;2022-12-18T05:07:23;-11.60;99.90
16327;DHT22;34812;49.846;9.610;2022-12-18T05:08:25;-11.60;99.90
16327;DHT22;34812;49.846;9.610;2022-12-18T05:09:26;-11.60;99.90
16327;DHT22;34812;49.846;9.610;2022-12-18T05:10:28;-11.60;99.90
16327;DHT22;34812;49.846;9.610;2022-12-18T05:11:30;-11.60;99.90
16327;DHT22;34812;49.846;9.610;2022-12-18T05:12:31;-11.60;99.90
16327;DHT22;34812;49.846;9.610;2022-12-18T05:13:33;-11.60;99.90
16327;DHT22;34812;49.846;9.610;2022-12-18T05:14:34;-11.70;99.90
16327;DHT22;34812;49.846;9.610;2022-12-18T05:15:37;-11.60;99.90
16327;DHT22;34812;49.846;9.610;2022-12-18T05:16:38;-11.70;99.90
16327;DHT22;34812;49.846;9.610;2022-12-18T05:17:40;-11.70;99.90
16327;DHT22;34812;49.846;9.610;2022-12-18T05:18:41;-11.60;99.90
16327;DHT22;34812;49.846;9.610;2022-12-18T05:19:42;-11.70;99.90
16327;DHT22;34812;49.846;9.610;2022-12-18T05:20:44;-11.70;99.90
16327;DHT22;34812;49.846;9.610;2022-12-18T05:21:45;-11.70;99.90
16327;DHT22;34812;49.846;9.610;2022-12-18T05:22:46;-11.70;99.90
16327;DHT22;34812;49.846;9.610;2022-12-18T05:23:48;-11.70;99.90
16327;DHT22;34812;49.846;9.610;2022-12-18T05:24:49;-11.70;99.90
16327;DHT22;34812;49.846;9.610;2022-12-18T05:25:51;-11.70;99.90
16327;DHT22;34812;49.846;9.610;2022-12-18T05:26:52;-11.70;99.90
16327;DHT22;34812;49.846;9.610;2022-12-18T05:27:53;-11.70;99.90
16327;DHT22;34812;49.846;9.610;2022-12-18T05:28:55;-11.70;99.90
16327;DHT22;34812;49.846;9.610;2022-12-18T05:29:56;-11.70;99.90
16327;DHT22;34812;49.846;9.610;2022-12-18T05:31:00;-11.70;99.90
16327;DHT22;34812;49.846;9.610;2022-12-18T05:32:02;-11.70;99.90
16327;DHT22;34812;49.846;9.610;2022-12-18T05:33:04;-11.70;99.90
16327;DHT22;34812;49.846;9.610;2022-12-18T05:34:05;-11.70;99.90
16327;DHT22;34812;49.846;9.610;2022-12-18T05:35:08;-11.70;99.90
16327;DHT22;34812;49.846;9.610;2022-12-18T05:36:10;-11.70;99.90
16327;DHT22;34812;49.846;9.610;2022-12-18T05:37:12;-11.70;99.90
16327;DHT22;34812;49.846;9.610;2022-12-18T05:38:13;-11.70;99.90
16327;DHT22;34812;49.846;9.610;2022-12-18T05:39:15;-11.70;99.90
16327;DHT22;34812;49.846;9.610;2022-12-18T05:40:16;-11.70;99.90
16327;DHT22;34812;49.846;9.610;2022-12-18T05:41:17;-11.70;99.90
16327;DHT22;34812;49.846;9.610;2022-12-18T05:42:18;-11.70;99.90
16327;DHT22;34812;49.846;9.610;2022-12-18T05:43:20;-11.70;99.90
16327;DHT22;34812;49.846;9.610;2022-12-18T05:44:22;-11.70;99.90
16327;DHT22;34812;49.846;9.610;2022-12-18T05:45:24;-11.70;99.90
16327;DHT22;34812;49.846;9.610;2022-12-18T05:46:26;-11.70;99.90
16327;DHT22;34812;49.846;9.610;2022-12-18T05:47:28;-11.70;99.90
16327;DHT22;34812;49.846;9.610;2022-12-18T05:48:29;-11.70;99.90
16327;DHT22;34812;49.846;9.610;2022-12-18T05:49:30;-11.80;99.90
16327;DHT22;34812;49.846;9.610;2022-12-18T05:50:34;-11.80;99.90
16327;DHT22;34812;49.846;9.610;2022-12-18T05:51:35;-11.80;99.90
16327;DHT22;34812;49.846;9.610;2022-12-18T05:52:36;-11.80;99.90
16327;DHT22;34812;49.846;9.610;2022-12-18T05:53:38;-11.80;99.90
16327;DHT22;34812;49.846;9.610;2022-12-18T05:54:39;-11.80;99.90
16327;DHT22;34812;49.846;9.610;2022-12-18T05:55:41;-11.80;99.90
16327;DHT22;34812;49.846;9.610;2022-12-18T05:56:42;-11.80;99.90
16327;DHT22;34812;49.846;9.610;2022-12-18T05:57:44;-11.80;99.90
16327;DHT22;34812;49.846;9.610;2022-12-18T05:58:45;-11.80;99.90
16327;DHT22;34812;49.846;9.610;2022-12-18T05:59:47;-11.80;99.90
16327;DHT22;34812;49.846;9.610;2022-12-18T06:00:48;-11.80;99.90
16327;DHT22;34812;49.846;9.610;2022-12-18T06:01:51;-11.80;99.90
16327;DHT22;34812;49.846;9.610;2022-12-18T06:02:52;-11.80;99.90
16327;DHT22;34812;49.846;9.610;2022-12-18T06:03:54;-11.80;99.90
16327;DHT22;34812;49.846;9.610;2022-12-18T06:04:55;-11.80;99.90
16327;DHT22;34812;49.846;9.610;2022-12-18T06:05:57;-11.80;99.90
16327;DHT22;34812;49.846;9.610;2022-12-18T06:06:57;-11.80;99.90
16327;DHT22;34812;49.846;9.610;2022-12-18T06:07:59;-11.80;99.90
16327;DHT22;34812;49.846;9.610;2022-12-18T06:09:00;-11.90;99.90
16327;DHT22;34812;49.846;9.610;2022-12-18T06:10:02;-11.90;99.90
16327;DHT22;34812;49.846;9.610;2022-12-18T06:11:03;-11.80;99.90
16327;DHT22;34812;49.846;9.610;2022-12-18T06:12:05;-11.80;99.90
16327;DHT22;34812;49.846;9.610;2022-12-18T06:13:06;-11.80;99.90
16327;DHT22;34812;49.846;9.610;2022-12-18T06:14:09;-11.80;99.90
16327;DHT22;34812;49.846;9.610;2022-12-18T06:15:10;-11.80;99.90
16327;DHT22;34812;49.846;9.610;2022-12-18T06:16:12;-11.90;99.90
16327;DHT22;34812;49.846;9.610;2022-12-18T06:17:14;-11.90;99.90
16327;DHT22;34812;49.846;9.610;2022-12-18T06:18:16;-11.90;99.90
16327;DHT22;34812;49.846;9.610;2022-12-18T06:19:17;-11.90;99.90
16327;DHT22;34812;49.846;9.610;2022-12-18T06:20:18;-11.90;99.90
16327;DHT22;34812;49.846;9.610;2022-12-18T06:21:19;-11.90;99.90
16327;DHT22;34812;49.846;9.610;2022-12-18T06:22:21;-11.90;99.90
16327;DHT22;34812;49.846;9.610;2022-12-18T06:23:22;-11.90;99.90
16327;DHT22;34812;49.846;9.610;2022-12-18T06:24:23;-11.90;99.90
16327;DHT22;34812;49.846;9.610;2022-12-18T06:25:24;-11.90;99.90
16327;DHT22;34812;49.846;9.610;2022-12-18T06:26:26;-11.90;99.90
16327;DHT22;34812;49.846;9.610;2022-12-18T06:27:27;-11.90;99.90
16327;DHT22;34812;49.846;9.610;2022-12-18T06:28:29;-11.90;99.90
16327;DHT22;34812;49.846;9.610;2022-12-18T06:29:29;-11.90;99.90
16327;DHT22;34812;49.846;9.610;2022-12-18T06:30:31;-11.90;99.90
16327;DHT22;34812;49.846;9.610;2022-12-18T06:31:32;-11.90;99.90
16327;DHT22;34812;49.846;9.610;2022-12-18T06:32:35;-11.90;99.90